createdAt,value
2022-08-07T00:00:46.158Z,14.99
2022-08-07T00:02:36.360Z,15.00
2022-08-07T00:02:47.137Z,14.93
2022-08-07T00:03:47.053Z,14.89
2022-08-07T00:04:46.171Z,14.87
2022-08-07T00:05:46.384Z,14.87
2022-08-07T00:06:51.539Z,14.87
2022-08-07T00:07:47.053Z,14.89
2022-08-07T00:08:46.030Z,14.93
2022-08-07T00:09:59.191Z,14.96
2022-08-07T00:10:48.024Z,14.96
2022-08-07T00:11:54.213Z,14.96
2022-08-07T00:12:57.919Z,14.97
2022-08-07T00:13:46.969Z,14.93
2022-08-07T00:14:45.980Z,14.89
2022-08-07T00:15:46.838Z,14.87
2022-08-07T00:16:46.934Z,14.86
2022-08-07T00:17:45.920Z,14.82
2022-08-07T00:18:45.910Z,14.81
2022-08-07T00:20:01.578Z,14.85
2022-08-07T00:20:46.900Z,14.85
2022-08-07T00:21:56.656Z,14.85
2022-08-07T00:22:51.706Z,14.82
2022-08-07T00:23:46.840Z,14.78
2022-08-07T00:24:45.821Z,14.77
2022-08-07T00:25:52.548Z,14.77
2022-08-07T00:26:49.233Z,14.77
2022-08-07T00:27:53.112Z,14.73
2022-08-07T00:28:55.689Z,14.71
2022-08-07T00:29:46.742Z,14.71
2022-08-07T00:30:45.760Z,14.71
2022-08-07T00:31:45.722Z,14.71
2022-08-07T00:32:46.704Z,14.70
2022-08-07T00:33:47.576Z,14.63
2022-08-07T00:34:45.683Z,14.61
2022-08-07T00:35:49.681Z,14.58
2022-08-07T00:36:45.666Z,14.53
2022-08-07T00:37:48.417Z,14.51
2022-08-07T00:38:45.630Z,14.49
2022-08-07T00:39:45.655Z,14.44
2022-08-07T00:40:46.622Z,14.43
2022-08-07T00:41:53.931Z,14.40
2022-08-07T00:42:46.563Z,14.37
2022-08-07T00:44:00.229Z,14.33
2022-08-07T00:44:46.544Z,14.28
2022-08-07T00:45:46.485Z,14.28
2022-08-07T00:46:45.512Z,14.26
2022-08-07T00:48:09.681Z,14.25
2022-08-07T00:48:49.852Z,14.23
2022-08-07T00:50:19.692Z,14.26
2022-08-07T00:50:51.497Z,14.26
2022-08-07T00:51:57.038Z,14.25
2022-08-07T00:52:47.524Z,14.22
2022-08-07T00:53:50.888Z,14.22
2022-08-07T00:54:46.403Z,14.25
2022-08-07T00:56:00.634Z,14.25
2022-08-07T00:56:46.384Z,14.26
2022-08-07T00:57:55.337Z,14.25
2022-08-07T00:58:47.030Z,14.20
2022-08-07T00:59:45.352Z,14.19
2022-08-07T01:00:53.923Z,14.19
2022-08-07T01:01:46.321Z,14.18
2022-08-07T01:02:45.315Z,14.16
2022-08-07T01:03:56.860Z,14.12
2022-08-07T01:04:46.273Z,14.08
2022-08-07T01:05:53.569Z,14.07
2022-08-07T01:06:46.264Z,14.04
2022-08-07T01:07:45.251Z,14.03
2022-08-07T01:08:53.461Z,13.98
2022-08-07T01:10:06.764Z,13.97
2022-08-07T01:10:54.283Z,13.95
2022-08-07T01:12:27.671Z,13.95
2022-08-07T01:12:53.910Z,13.94
2022-08-07T01:13:55.654Z,13.93
2022-08-07T01:14:46.138Z,13.89
2022-08-07T01:16:05.747Z,13.87
2022-08-07T01:16:47.119Z,13.87
2022-08-07T01:17:45.095Z,13.85
2022-08-07T01:18:45.092Z,13.83
2022-08-07T01:19:45.078Z,13.83
2022-08-07T01:20:57.269Z,13.85
2022-08-07T01:21:46.065Z,13.85
2022-08-07T01:22:54.168Z,13.85
2022-08-07T01:23:46.695Z,13.80
2022-08-07T01:24:45.006Z,13.73
2022-08-07T01:25:55.337Z,13.62
2022-08-07T01:27:19.816Z,13.55
2022-08-07T01:27:50.905Z,13.52
2022-08-07T01:28:48.301Z,13.50
2022-08-07T01:29:44.939Z,13.47
2022-08-07T01:30:44.962Z,13.49
2022-08-07T01:31:48.629Z,13.54
2022-08-07T01:32:44.898Z,13.55
2022-08-07T01:33:55.675Z,13.57
2022-08-07T01:34:47.184Z,13.60
2022-08-07T01:35:53.686Z,13.62
2022-08-07T01:36:52.924Z,13.64
2022-08-07T01:37:45.831Z,13.62
2022-08-07T01:38:44.815Z,13.58
2022-08-07T01:39:46.709Z,13.49
2022-08-07T01:40:44.816Z,13.45
2022-08-07T01:42:01.449Z,13.37
2022-08-07T01:42:58.669Z,13.36
2022-08-07T01:43:45.749Z,13.37
2022-08-07T01:44:44.769Z,13.42
2022-08-07T01:45:46.616Z,13.43
2022-08-07T01:46:44.733Z,13.42
2022-08-07T01:48:17.676Z,13.45
2022-08-07T01:48:46.696Z,13.46
2022-08-07T01:49:44.669Z,13.45
2022-08-07T01:50:44.682Z,13.39
2022-08-07T01:52:03.342Z,13.36
2022-08-07T01:52:49.651Z,13.37
2022-08-07T01:54:09.103Z,13.40
2022-08-07T01:54:45.599Z,13.43
2022-08-07T01:55:44.577Z,13.45
2022-08-07T01:56:49.455Z,13.46
2022-08-07T01:58:01.371Z,13.47
2022-08-07T01:58:45.570Z,13.49
2022-08-07T01:59:45.144Z,13.50
2022-08-07T02:00:45.417Z,13.45
2022-08-07T02:02:02.297Z,13.46
2022-08-07T02:03:18.102Z,13.47
2022-08-07T02:03:50.507Z,13.47
2022-08-07T02:04:55.662Z,13.47
2022-08-07T02:05:58.541Z,13.47
2022-08-07T02:06:45.878Z,13.49
2022-08-07T02:07:50.411Z,13.47
2022-08-07T02:08:45.411Z,13.46
2022-08-07T02:09:54.771Z,13.46
2022-08-07T02:10:53.421Z,13.46
2022-08-07T02:12:03.590Z,13.45
2022-08-07T02:12:46.428Z,13.43
2022-08-07T02:13:56.776Z,13.40
2022-08-07T02:14:45.353Z,13.39
2022-08-07T02:15:44.312Z,13.33
2022-08-07T02:16:44.335Z,13.28
2022-08-07T02:17:49.348Z,13.28
2022-08-07T02:18:47.186Z,13.28
2022-08-07T02:20:04.403Z,13.30
2022-08-07T02:20:48.579Z,13.28
2022-08-07T02:21:56.347Z,13.28
2022-08-07T02:22:45.251Z,13.27
2022-08-07T02:23:44.745Z,13.21
2022-08-07T02:24:44.679Z,13.21
2022-08-07T02:26:31.044Z,13.19
2022-08-07T02:26:45.173Z,13.20
2022-08-07T02:27:44.141Z,13.19
2022-08-07T02:28:45.139Z,13.12
2022-08-07T02:29:48.660Z,13.09
2022-08-07T02:30:45.110Z,13.06
2022-08-07T02:31:44.113Z,13.03
2022-08-07T02:33:08.985Z,13.02
2022-08-07T02:34:03.462Z,13.01
2022-08-07T02:34:48.982Z,13.01
2022-08-07T02:36:30.097Z,12.98
2022-08-07T02:36:45.243Z,12.90
2022-08-07T02:37:44.404Z,12.83
2022-08-07T02:38:51.042Z,12.76
2022-08-07T02:40:02.561Z,12.76
2022-08-07T02:40:46.539Z,12.78
2022-08-07T02:41:50.678Z,12.81
2022-08-07T02:42:44.943Z,12.83
2022-08-07T02:43:43.934Z,12.81
2022-08-07T02:44:48.165Z,12.80
2022-08-07T02:46:00.796Z,12.81
2022-08-07T02:46:46.694Z,12.80
2022-08-07T02:47:49.114Z,12.80
2022-08-07T02:48:54.862Z,12.80
2022-08-07T02:49:59.028Z,12.80
2022-08-07T02:50:44.914Z,12.83
2022-08-07T02:51:49.768Z,12.88
2022-08-07T02:52:47.803Z,12.90
2022-08-07T02:53:43.824Z,12.91
2022-08-07T02:54:43.783Z,12.94
2022-08-07T02:56:03.536Z,12.94
2022-08-07T02:56:44.795Z,12.91
2022-08-07T02:57:43.753Z,12.90
2022-08-07T02:58:46.972Z,12.90
2022-08-07T02:59:43.744Z,12.86
2022-08-07T03:00:47.430Z,12.81
2022-08-07T03:01:47.219Z,12.75
2022-08-07T03:02:55.110Z,12.69
2022-08-07T03:03:50.546Z,12.62
2022-08-07T03:04:44.652Z,12.55
2022-08-07T03:05:43.666Z,12.51
2022-08-07T03:06:44.809Z,12.51
2022-08-07T03:08:07.960Z,12.45
2022-08-07T03:08:44.594Z,12.43
2022-08-07T03:09:46.369Z,12.40
2022-08-07T03:10:46.476Z,12.37
2022-08-07T03:11:52.228Z,12.40
2022-08-07T03:12:44.566Z,12.39
2022-08-07T03:13:49.671Z,12.40
2022-08-07T03:14:48.410Z,12.43
2022-08-07T03:15:55.813Z,12.44
2022-08-07T03:16:44.525Z,12.43
2022-08-07T03:17:52.939Z,12.40
2022-08-07T03:18:44.474Z,12.37
2022-08-07T03:19:43.447Z,12.32
2022-08-07T03:20:44.436Z,12.29
2022-08-07T03:21:50.633Z,12.18
2022-08-07T03:22:44.437Z,12.10
2022-08-07T03:24:17.909Z,12.03
2022-08-07T03:24:44.396Z,12.08
2022-08-07T03:25:43.366Z,12.10
2022-08-07T03:26:51.269Z,12.07
2022-08-07T03:27:59.075Z,12.00
2022-08-07T03:28:44.683Z,11.91
2022-08-07T03:29:46.264Z,11.89
2022-08-07T03:30:44.315Z,11.93
2022-08-07T03:31:46.120Z,11.97
2022-08-07T03:32:48.965Z,11.97
2022-08-07T03:33:44.255Z,11.96
2022-08-07T03:34:47.569Z,11.95
2022-08-07T03:35:44.304Z,11.89
2022-08-07T03:36:44.237Z,11.86
2022-08-07T03:37:54.130Z,11.88
2022-08-07T03:38:44.197Z,11.86
2022-08-07T03:39:59.373Z,11.89
2022-08-07T03:40:44.659Z,11.93
2022-08-07T03:41:47.717Z,11.97
2022-08-07T03:42:44.158Z,11.95
2022-08-07T03:43:44.062Z,11.93
2022-08-07T03:44:53.263Z,11.96
2022-08-07T03:45:47.504Z,11.97
2022-08-07T03:47:10.542Z,11.96
2022-08-07T03:47:48.038Z,11.93
2022-08-07T03:48:45.491Z,11.88
2022-08-07T03:49:48.062Z,11.85
2022-08-07T03:50:56.281Z,11.86
2022-08-07T03:51:47.329Z,11.85
2022-08-07T03:52:43.029Z,11.80
2022-08-07T03:54:05.686Z,11.76
2022-08-07T03:54:54.245Z,11.71
2022-08-07T03:55:57.342Z,11.71
2022-08-07T03:57:03.700Z,11.70
2022-08-07T03:58:34.144Z,11.67
2022-08-07T03:59:08.456Z,11.67
2022-08-07T03:59:46.893Z,11.67
2022-08-07T04:00:46.312Z,11.70
2022-08-07T04:01:43.093Z,11.73
2022-08-07T04:02:42.888Z,11.74
2022-08-07T04:03:53.304Z,11.74
2022-08-07T04:04:45.124Z,11.78
2022-08-07T04:05:45.622Z,11.77
2022-08-07T04:06:42.828Z,11.76
2022-08-07T04:07:45.337Z,11.77
2022-08-07T04:08:42.870Z,11.80
2022-08-07T04:09:45.193Z,11.76
2022-08-07T04:10:54.865Z,11.73
2022-08-07T04:12:23.897Z,11.70
2022-08-07T04:12:43.809Z,11.68
2022-08-07T04:14:10.477Z,11.70
2022-08-07T04:14:46.324Z,11.71
2022-08-07T04:15:42.697Z,11.68
2022-08-07T04:16:43.097Z,11.68
2022-08-07T04:18:30.769Z,11.68
2022-08-07T04:18:59.380Z,11.73
2022-08-07T04:19:52.211Z,11.78
2022-08-07T04:20:54.775Z,11.83
2022-08-07T04:21:47.921Z,11.86
2022-08-07T04:22:53.440Z,11.89
2022-08-07T04:24:06.044Z,11.93
2022-08-07T04:24:43.579Z,11.95
2022-08-07T04:25:42.607Z,11.95
2022-08-07T04:26:43.661Z,11.86
2022-08-07T04:27:44.118Z,11.86
2022-08-07T04:28:42.529Z,11.85
2022-08-07T04:29:58.267Z,11.91
2022-08-07T04:30:57.052Z,11.95
2022-08-07T04:32:03.068Z,11.96
2022-08-07T04:32:44.629Z,11.96
2022-08-07T04:33:42.461Z,11.99
2022-08-07T04:34:42.490Z,11.99
2022-08-07T04:35:42.476Z,12.02
2022-08-07T04:36:42.420Z,12.03
2022-08-07T04:38:03.981Z,12.08
2022-08-07T04:38:43.404Z,12.05
2022-08-07T04:39:47.873Z,12.08
2022-08-07T04:40:52.203Z,12.08
2022-08-07T04:41:43.373Z,12.10
2022-08-07T04:42:43.680Z,12.08
2022-08-07T04:44:10.082Z,12.08
2022-08-07T04:44:54.598Z,12.10
2022-08-07T04:45:52.096Z,12.08
2022-08-07T04:46:59.399Z,12.10
2022-08-07T04:48:01.358Z,12.12
2022-08-07T04:48:44.513Z,12.14
2022-08-07T04:49:42.253Z,12.15
2022-08-07T04:50:43.229Z,12.14
2022-08-07T04:51:43.221Z,12.15
2022-08-07T04:52:51.237Z,12.18
2022-08-07T04:54:05.515Z,12.26
2022-08-07T04:54:43.180Z,12.30
2022-08-07T04:58:11.333Z,12.40
2022-08-07T04:58:16.618Z,12.36
2022-08-07T04:58:16.887Z,12.48
2022-08-07T05:00:10.982Z,12.50
2022-08-07T05:00:43.151Z,12.53
2022-08-07T05:01:42.090Z,12.53
2022-08-07T05:02:43.408Z,12.51
2022-08-07T05:04:06.994Z,12.51
2022-08-07T05:04:47.257Z,12.53
2022-08-07T05:05:54.021Z,12.53
2022-08-07T05:06:51.157Z,12.54
2022-08-07T05:07:48.152Z,12.57
2022-08-07T05:08:59.424Z,12.62
2022-08-07T05:09:46.639Z,12.65
2022-08-07T05:10:41.968Z,12.70
2022-08-07T05:11:58.871Z,12.73
2022-08-07T05:12:46.228Z,12.75
2022-08-07T05:14:52.590Z,12.73
2022-08-07T05:14:56.259Z,12.75
2022-08-07T05:15:42.919Z,12.80
2022-08-07T05:16:44.111Z,12.81
2022-08-07T05:17:52.840Z,12.86
2022-08-07T05:18:42.861Z,12.91
2022-08-07T05:19:44.729Z,12.91
2022-08-07T05:20:42.779Z,12.94
2022-08-07T05:22:00.034Z,12.99
2022-08-07T05:22:42.841Z,13.01
2022-08-07T05:23:41.790Z,13.03
2022-08-07T05:24:41.785Z,13.06
2022-08-07T05:26:13.492Z,13.12
2022-08-07T05:26:42.740Z,13.12
2022-08-07T05:28:03.068Z,13.11
2022-08-07T05:28:48.758Z,13.09
2022-08-07T05:29:50.969Z,13.11
2022-08-07T05:30:42.692Z,13.11
2022-08-07T05:31:41.681Z,13.12
2022-08-07T05:32:42.673Z,13.17
2022-08-07T05:33:41.659Z,13.20
2022-08-07T05:34:42.631Z,13.26
2022-08-07T05:35:42.439Z,13.33
2022-08-07T05:36:41.610Z,13.37
2022-08-07T05:37:42.336Z,13.43
2022-08-07T05:38:59.608Z,13.46
2022-08-07T05:40:13.877Z,13.50
2022-08-07T05:40:51.318Z,13.49
2022-08-07T05:42:02.657Z,13.52
2022-08-07T05:42:42.528Z,13.54
2022-08-07T05:43:49.840Z,13.55
2022-08-07T05:44:52.929Z,13.58
2022-08-07T05:45:47.590Z,13.58
2022-08-07T05:46:42.951Z,13.61
2022-08-07T05:48:01.609Z,13.62
2022-08-07T05:48:59.591Z,13.65
2022-08-07T05:49:42.451Z,13.65
2022-08-07T05:50:42.908Z,13.68
2022-08-07T05:51:42.190Z,13.70
2022-08-07T05:52:41.414Z,13.76
2022-08-07T05:54:13.826Z,13.76
2022-08-07T05:54:53.210Z,13.76
2022-08-07T05:56:03.619Z,13.80
2022-08-07T05:56:42.334Z,13.82
2022-08-07T05:57:42.060Z,13.85
2022-08-07T05:58:41.326Z,13.89
2022-08-07T05:59:57.656Z,13.91
2022-08-07T06:00:42.275Z,13.93
2022-08-07T06:01:42.359Z,13.95
2022-08-07T06:02:41.733Z,13.95
2022-08-07T06:03:53.984Z,13.95
2022-08-07T06:04:42.225Z,13.95
2022-08-07T06:05:41.223Z,13.98
2022-08-07T06:06:45.871Z,14.03
2022-08-07T06:08:12.942Z,14.07
2022-08-07T06:08:44.262Z,14.07
2022-08-07T06:10:04.457Z,14.11
2022-08-07T06:10:42.584Z,14.12
2022-08-07T06:11:41.204Z,14.15
2022-08-07T06:12:41.159Z,14.16
2022-08-07T06:14:12.182Z,14.18
2022-08-07T06:14:42.095Z,14.23
2022-08-07T06:15:42.934Z,14.23
2022-08-07T06:16:41.065Z,14.26
2022-08-07T06:17:41.320Z,14.28
2022-08-07T06:18:42.996Z,14.30
2022-08-07T06:19:51.797Z,14.33
2022-08-07T06:20:49.801Z,14.37
2022-08-07T06:22:16.918Z,14.40
2022-08-07T06:22:41.985Z,14.43
2022-08-07T06:24:37.178Z,14.45
2022-08-07T06:24:53.016Z,14.51
2022-08-07T06:25:41.964Z,14.55
2022-08-07T06:26:41.926Z,14.58
2022-08-07T06:28:00.434Z,14.62
2022-08-07T06:28:41.894Z,14.66
2022-08-07T06:29:40.905Z,14.68
2022-08-07T06:30:45.353Z,14.70
2022-08-07T06:31:50.071Z,14.71
2022-08-07T06:32:41.845Z,14.78
2022-08-07T06:33:40.825Z,14.81
2022-08-07T06:34:40.835Z,14.87
2022-08-07T06:35:47.715Z,14.94
2022-08-07T06:36:41.850Z,14.99
2022-08-07T06:37:43.513Z,15.02
2022-08-07T06:38:58.751Z,15.07
2022-08-07T06:40:16.345Z,15.11
2022-08-07T06:40:46.090Z,15.15
2022-08-07T06:41:59.226Z,15.23
2022-08-07T06:42:41.755Z,15.26
2022-08-07T06:43:46.384Z,15.29
2022-08-07T06:44:41.709Z,15.32
2022-08-07T06:45:40.690Z,15.37
2022-08-07T06:46:40.680Z,15.41
2022-08-07T06:47:57.222Z,15.45
2022-08-07T06:48:42.131Z,15.47
2022-08-07T06:49:52.044Z,15.48
2022-08-07T06:50:43.231Z,15.50
2022-08-07T06:51:49.397Z,15.51
2022-08-07T06:52:41.596Z,15.54
2022-08-07T06:55:30.084Z,15.59
2022-08-07T06:55:31.951Z,15.62
2022-08-07T06:55:53.870Z,15.65
2022-08-07T06:56:48.450Z,15.67
2022-08-07T06:57:47.764Z,15.72
2022-08-07T06:58:41.513Z,15.73
2022-08-07T07:00:11.647Z,15.81
2022-08-07T07:00:42.282Z,15.87
2022-08-07T07:01:43.813Z,15.88
2022-08-07T07:02:54.553Z,15.92
2022-08-07T07:03:48.610Z,15.98
2022-08-07T07:04:43.536Z,16.00
2022-08-07T07:06:02.385Z,16.05
2022-08-07T07:07:00.264Z,16.09
2022-08-07T07:07:59.840Z,16.12
2022-08-07T07:08:46.703Z,16.17
2022-08-07T07:09:41.378Z,16.21
2022-08-07T07:10:47.536Z,16.24
2022-08-07T07:12:08.748Z,16.29
2022-08-07T07:12:41.679Z,16.36
2022-08-07T07:13:57.506Z,16.41
2022-08-07T07:14:41.309Z,16.47
2022-08-07T07:15:40.348Z,16.47
2022-08-07T07:16:50.850Z,16.44
2022-08-07T07:17:45.469Z,16.44
2022-08-07T07:18:48.010Z,16.44
2022-08-07T07:19:56.157Z,16.44
2022-08-07T07:20:41.216Z,16.54
2022-08-07T07:22:11.799Z,16.68
2022-08-07T07:23:06.033Z,16.91
2022-08-07T07:24:06.065Z,17.12
2022-08-07T07:24:43.229Z,17.37
2022-08-07T07:26:32.444Z,17.57
2022-08-07T07:26:41.111Z,17.78
2022-08-07T07:27:55.829Z,17.88
2022-08-07T07:28:48.514Z,17.93
2022-08-07T07:30:09.378Z,17.95
2022-08-07T07:30:41.151Z,18.02
2022-08-07T07:31:44.571Z,18.06
2022-08-07T07:32:41.049Z,18.16
2022-08-07T07:33:40.047Z,18.28
2022-08-07T07:34:40.043Z,18.37
2022-08-07T07:35:54.137Z,18.46
2022-08-07T07:36:40.993Z,18.57
2022-08-07T07:37:49.414Z,18.68
2022-08-07T07:38:40.992Z,18.79
2022-08-07T07:39:51.965Z,18.85
2022-08-07T07:40:40.941Z,18.92
2022-08-07T07:42:02.002Z,18.98
2022-08-07T07:42:40.920Z,19.07
2022-08-07T07:43:48.146Z,19.11
2022-08-07T07:44:40.898Z,19.19
2022-08-07T07:46:36.913Z,19.26
2022-08-07T07:46:55.339Z,19.30
2022-08-07T07:47:51.821Z,19.35
2022-08-07T07:48:40.830Z,19.39
2022-08-07T07:50:34.580Z,19.44
2022-08-07T07:50:41.019Z,19.45
2022-08-07T07:51:58.327Z,19.41
2022-08-07T07:52:40.769Z,19.34
2022-08-07T07:53:51.889Z,19.22
2022-08-07T07:54:50.424Z,19.20
2022-08-07T07:55:45.619Z,19.20
2022-08-07T07:56:40.730Z,19.24
2022-08-07T07:57:53.412Z,19.34
2022-08-07T07:58:41.106Z,19.37
2022-08-07T07:59:52.799Z,19.42
2022-08-07T08:00:40.674Z,19.41
2022-08-07T08:02:04.032Z,19.44
2022-08-07T08:03:01.266Z,19.49
2022-08-07T08:04:09.411Z,19.53
2022-08-07T08:04:40.684Z,19.59
2022-08-07T08:05:42.922Z,19.63
2022-08-07T08:06:40.594Z,19.67
2022-08-07T08:07:51.381Z,19.74
2022-08-07T08:08:41.968Z,19.81
2022-08-07T08:09:52.113Z,19.85
2022-08-07T08:10:40.543Z,19.92
2022-08-07T08:11:59.850Z,19.93
2022-08-07T08:12:52.712Z,19.94
2022-08-07T08:13:53.061Z,19.97
2022-08-07T08:14:40.495Z,19.94
2022-08-07T08:15:57.741Z,19.94
2022-08-07T08:16:40.473Z,19.94
2022-08-07T08:17:57.606Z,19.94
2022-08-07T08:18:40.427Z,19.99
2022-08-07T08:20:17.627Z,20.00
2022-08-07T08:20:40.402Z,20.02
2022-08-07T08:21:55.389Z,20.03
2022-08-07T08:22:54.121Z,20.08
2022-08-07T08:23:40.346Z,20.07
2022-08-07T08:24:45.707Z,20.08
2022-08-07T08:25:42.395Z,20.11
2022-08-07T08:26:40.326Z,20.15
2022-08-07T08:27:39.296Z,20.18
2022-08-07T08:28:45.189Z,20.22
2022-08-07T08:29:54.215Z,20.26
2022-08-07T08:30:50.809Z,20.30
2022-08-07T08:32:17.424Z,20.32
2022-08-07T08:32:41.340Z,20.33
2022-08-07T08:33:39.207Z,20.36
2022-08-07T08:34:39.227Z,20.36
2022-08-07T08:35:47.085Z,20.36
2022-08-07T08:36:40.179Z,20.37
2022-08-07T08:38:00.275Z,20.37
2022-08-07T08:38:41.071Z,20.37
2022-08-07T08:39:58.174Z,20.39
2022-08-07T08:40:40.146Z,20.39
2022-08-07T08:41:56.769Z,20.44
2022-08-07T08:42:40.330Z,20.46
2022-08-07T08:43:42.986Z,20.52
2022-08-07T08:44:44.646Z,20.58
2022-08-07T08:45:41.493Z,20.63
2022-08-07T08:46:40.059Z,20.64
2022-08-07T08:47:51.830Z,20.68
2022-08-07T08:48:40.046Z,20.70
2022-08-07T08:49:46.245Z,20.73
2022-08-07T08:50:40.361Z,20.74
2022-08-07T08:52:00.722Z,20.77
2022-08-07T08:52:40.835Z,20.80
2022-08-07T08:53:39.941Z,20.83
2022-08-07T08:54:38.938Z,20.83
2022-08-07T08:55:55.606Z,20.86
2022-08-07T08:56:39.909Z,20.90
2022-08-07T08:57:39.889Z,20.96
2022-08-07T08:58:38.997Z,21.01
2022-08-07T08:59:41.963Z,21.07
2022-08-07T09:00:42.674Z,21.13
2022-08-07T09:01:46.555Z,21.15
2022-08-07T09:02:40.449Z,21.19
2022-08-07T09:03:47.549Z,21.23
2022-08-07T09:04:39.830Z,21.29
2022-08-07T09:05:38.780Z,21.30
2022-08-07T09:06:40.324Z,21.32
2022-08-07T09:07:46.255Z,21.33
2022-08-07T09:08:39.817Z,21.35
2022-08-07T09:09:38.741Z,21.37
2022-08-07T09:10:38.715Z,21.38
2022-08-07T09:11:43.695Z,21.40
2022-08-07T09:12:39.681Z,21.45
2022-08-07T09:13:38.668Z,21.48
2022-08-07T09:14:38.700Z,21.51
2022-08-07T09:16:23.995Z,21.50
2022-08-07T09:16:39.630Z,21.50
2022-08-07T09:17:59.776Z,21.45
2022-08-07T09:18:39.610Z,21.47
2022-08-07T09:19:52.575Z,21.45
2022-08-07T09:20:39.582Z,21.48
2022-08-07T09:22:09.991Z,21.48
2022-08-07T09:24:31.968Z,21.50
2022-08-07T09:24:33.305Z,21.54
2022-08-07T09:24:56.111Z,21.59
2022-08-07T09:25:39.504Z,21.68
2022-08-07T09:26:38.513Z,21.75
2022-08-07T09:28:00.331Z,21.83
2022-08-07T09:30:00.765Z,21.88
2022-08-07T09:30:05.421Z,21.94
2022-08-07T09:30:39.492Z,21.97
2022-08-07T09:31:39.004Z,22.01
2022-08-07T09:32:39.423Z,22.03
2022-08-07T09:33:52.746Z,22.04
2022-08-07T09:34:39.406Z,22.08
2022-08-07T09:36:03.282Z,22.10
2022-08-07T09:36:43.107Z,22.14
2022-08-07T09:37:48.299Z,22.16
2022-08-07T09:38:39.333Z,22.18
2022-08-07T09:39:54.475Z,22.19
2022-08-07T09:40:39.352Z,22.23
2022-08-07T09:41:58.503Z,22.25
2022-08-07T09:42:39.276Z,22.26
2022-08-07T09:43:40.564Z,22.25
2022-08-07T09:45:03.453Z,22.26
2022-08-07T09:47:27.389Z,22.28
2022-08-07T09:47:51.886Z,22.28
2022-08-07T09:48:02.446Z,22.23
2022-08-07T09:48:55.976Z,22.25
2022-08-07T09:50:02.605Z,22.25
2022-08-07T09:50:39.846Z,22.25
2022-08-07T09:52:15.851Z,22.26
2022-08-07T09:52:39.148Z,22.26
2022-08-07T09:53:40.756Z,22.33
2022-08-07T09:54:39.119Z,22.34
2022-08-07T09:56:03.151Z,22.38
2022-08-07T09:56:41.761Z,22.46
2022-08-07T09:57:38.071Z,22.47
2022-08-07T09:58:42.226Z,22.51
2022-08-07T09:59:46.179Z,22.52
2022-08-07T10:00:39.040Z,22.55
2022-08-07T10:01:51.375Z,22.58
2022-08-07T10:02:39.010Z,22.61
2022-08-07T10:04:05.084Z,22.62
2022-08-07T10:04:39.345Z,22.61
2022-08-07T10:06:00.258Z,22.62
2022-08-07T10:06:38.959Z,22.61
2022-08-07T10:07:49.539Z,22.63
2022-08-07T10:08:38.932Z,22.67
2022-08-07T10:09:42.540Z,22.71
2022-08-07T10:11:07.832Z,22.77
2022-08-07T10:12:03.308Z,22.80
2022-08-07T10:12:39.624Z,22.84
2022-08-07T10:14:00.571Z,22.89
2022-08-07T10:14:38.871Z,22.96
2022-08-07T10:15:44.364Z,23.04
2022-08-07T10:16:38.811Z,23.06
2022-08-07T10:18:01.158Z,23.10
2022-08-07T10:18:38.817Z,23.13
2022-08-07T10:19:38.674Z,23.16
2022-08-07T10:20:37.765Z,23.17
2022-08-07T10:22:12.633Z,23.18
2022-08-07T10:22:38.766Z,23.18
2022-08-07T10:24:05.440Z,23.20
2022-08-07T10:24:39.866Z,23.21
2022-08-07T10:25:42.933Z,23.25
2022-08-07T10:26:38.704Z,23.34
2022-08-07T10:27:46.414Z,23.42
2022-08-07T10:28:38.652Z,23.47
2022-08-07T10:29:43.250Z,23.48
2022-08-07T10:30:38.634Z,23.49
2022-08-07T10:31:38.950Z,23.52
2022-08-07T10:32:53.532Z,23.49
2022-08-07T10:34:05.951Z,23.49
2022-08-07T10:34:38.607Z,23.49
2022-08-07T10:35:53.508Z,23.49
2022-08-07T10:36:38.587Z,23.55
2022-08-07T10:37:48.690Z,23.59
2022-08-07T10:38:47.831Z,23.64
2022-08-07T10:39:41.951Z,23.69
2022-08-07T10:40:38.518Z,23.70
2022-08-07T10:41:47.108Z,23.70
2022-08-07T10:42:38.508Z,23.69
2022-08-07T10:43:37.457Z,23.69
2022-08-07T10:44:39.072Z,23.70
2022-08-07T10:45:45.101Z,23.70
2022-08-07T10:46:38.462Z,23.73
2022-08-07T10:47:51.432Z,23.76
2022-08-07T10:48:38.383Z,23.81
2022-08-07T10:49:49.784Z,23.82
2022-08-07T10:50:38.558Z,23.82
2022-08-07T10:51:57.480Z,23.84
2022-08-07T10:52:40.154Z,23.84
2022-08-07T10:53:44.025Z,23.86
2022-08-07T10:54:38.284Z,23.86
2022-08-07T10:55:38.543Z,23.89
2022-08-07T10:56:37.273Z,23.92
2022-08-07T10:57:37.383Z,23.92
2022-08-07T10:58:40.310Z,23.88
2022-08-07T10:59:37.606Z,23.85
2022-08-07T11:00:42.988Z,23.79
2022-08-07T11:01:51.652Z,23.77
2022-08-07T11:02:38.275Z,23.67
2022-08-07T11:03:52.776Z,23.59
2022-08-07T11:04:38.261Z,23.56
2022-08-07T11:05:50.603Z,23.58
2022-08-07T11:06:38.128Z,23.62
2022-08-07T11:07:59.045Z,23.63
2022-08-07T11:08:39.018Z,23.69
2022-08-07T11:10:07.713Z,23.74
2022-08-07T11:10:38.113Z,23.81
2022-08-07T11:11:37.720Z,23.89
2022-08-07T11:12:37.059Z,23.95
2022-08-07T11:14:41.931Z,24.04
2022-08-07T11:14:43.773Z,24.09
2022-08-07T11:15:38.032Z,24.13
2022-08-07T11:16:37.009Z,24.19
2022-08-07T11:17:43.387Z,24.22
2022-08-07T11:18:37.991Z,24.28
2022-08-07T11:19:36.984Z,24.31
2022-08-07T11:20:36.982Z,24.32
2022-08-07T11:21:40.902Z,24.32
2022-08-07T11:22:45.610Z,24.36
2022-08-07T11:23:38.846Z,24.40
2022-08-07T11:24:36.911Z,24.43
2022-08-07T11:25:47.802Z,24.44
2022-08-07T11:26:38.661Z,24.44
2022-08-07T11:28:01.795Z,24.38
2022-08-07T11:28:37.862Z,24.43
2022-08-07T11:29:42.152Z,24.47
2022-08-07T11:30:39.212Z,24.48
2022-08-07T11:31:36.866Z,24.51
2022-08-07T11:32:36.814Z,24.55
2022-08-07T11:33:54.137Z,24.56
2022-08-07T11:34:37.785Z,24.55
2022-08-07T11:35:36.775Z,24.55
2022-08-07T11:36:37.754Z,24.58
2022-08-07T11:37:38.341Z,24.63
2022-08-07T11:38:36.735Z,24.69
2022-08-07T11:39:58.889Z,24.75
2022-08-07T11:40:37.715Z,24.81
2022-08-07T11:42:00.147Z,24.85
2022-08-07T11:42:37.667Z,24.86
2022-08-07T11:43:54.205Z,24.88
2022-08-07T11:44:37.649Z,24.92
2022-08-07T11:45:36.648Z,24.94
2022-08-07T11:46:38.021Z,24.93
2022-08-07T11:47:38.890Z,24.94
2022-08-07T11:48:37.667Z,24.96
2022-08-07T11:50:11.428Z,24.92
2022-08-07T11:50:44.248Z,24.92
2022-08-07T11:51:41.331Z,24.94
2022-08-07T11:52:37.792Z,24.94
2022-08-07T11:53:36.537Z,24.99
2022-08-07T11:54:36.509Z,25.01
2022-08-07T11:56:25.715Z,25.04
2022-08-07T11:56:37.488Z,25.06
2022-08-07T11:58:00.372Z,25.04
2022-08-07T11:58:38.279Z,25.06
2022-08-07T12:00:11.549Z,25.07
2022-08-07T12:00:37.449Z,25.06
2022-08-07T12:02:00.493Z,25.09
2022-08-07T12:02:37.491Z,25.15
2022-08-07T12:03:41.538Z,25.15
2022-08-07T12:04:37.379Z,25.15
2022-08-07T12:05:47.189Z,25.18
2022-08-07T12:06:40.258Z,25.15
2022-08-07T12:07:40.127Z,25.14
2022-08-07T12:08:36.320Z,25.15
2022-08-07T12:09:36.307Z,25.21
2022-08-07T12:10:36.309Z,25.24
2022-08-07T12:11:43.516Z,25.31
2022-08-07T12:12:37.269Z,25.33
2022-08-07T12:13:37.904Z,25.37
2022-08-07T12:14:37.239Z,25.41
2022-08-07T12:16:05.379Z,25.43
2022-08-07T12:16:37.210Z,25.46
2022-08-07T12:17:36.505Z,25.52
2022-08-07T12:18:36.174Z,25.59
2022-08-07T12:19:56.832Z,25.70
2022-08-07T12:20:37.171Z,25.77
2022-08-07T12:22:36.626Z,25.80
2022-08-07T12:22:56.521Z,25.88
2022-08-07T12:24:07.465Z,25.85
2022-08-07T12:24:40.330Z,25.89
2022-08-07T12:26:22.450Z,25.95
2022-08-07T12:26:46.188Z,25.96
2022-08-07T12:28:08.506Z,25.95
2022-08-07T12:28:37.042Z,25.95
2022-08-07T12:29:37.729Z,25.96
2022-08-07T12:30:36.043Z,25.99
2022-08-07T12:32:01.315Z,26.01
2022-08-07T12:32:36.994Z,26.03
2022-08-07T12:34:01.133Z,26.08
2022-08-07T12:34:36.964Z,26.08
2022-08-07T12:35:36.459Z,26.16
2022-08-07T12:36:35.951Z,26.16
2022-08-07T12:38:10.820Z,26.18
2022-08-07T12:38:47.268Z,26.13
2022-08-07T12:39:42.497Z,26.13
2022-08-07T12:40:47.348Z,26.06
2022-08-07T12:41:49.269Z,26.07
2022-08-07T12:42:36.865Z,26.11
2022-08-07T12:44:01.505Z,26.18
2022-08-07T12:44:36.825Z,26.26
2022-08-07T12:45:35.832Z,26.33
2022-08-07T12:46:35.840Z,26.37
2022-08-07T12:47:37.733Z,26.41
2022-08-07T12:48:41.438Z,26.41
2022-08-07T12:49:51.037Z,26.41
2022-08-07T12:50:40.061Z,26.45
2022-08-07T12:51:51.241Z,26.52
2022-08-07T12:52:36.727Z,26.51
2022-08-07T12:54:02.832Z,26.52